sensor_id;sensor_type;location;lat;lon;timestamp;P1;durP1;ratioP1;P2;durP2;ratioP2
78484;SDS011;67773;50.806;8.776;2024-02-21T00:00:28;12.55;;;3.88;;
78484;SDS011;67773;50.806;8.776;2024-02-21T00:02:53;13.00;;;4.00;;
78484;SDS011;67773;50.806;8.776;2024-02-21T00:05:18;8.93;;;3.58;;
78484;SDS011;67773;50.806;8.776;2024-02-21T00:07:44;10.40;;;3.50;;
78484;SDS011;67773;50.806;8.776;2024-02-21T00:10:09;8.70;;;3.57;;
78484;SDS011;67773;50.806;8.776;2024-02-21T00:12:34;9.57;;;3.80;;
78484;SDS011;67773;50.806;8.776;2024-02-21T00:15:00;11.37;;;3.57;;
78484;SDS011;67773;50.806;8.776;2024-02-21T00:17:25;13.27;;;4.65;;
78484;SDS011;67773;50.806;8.776;2024-02-21T00:19:51;10.63;;;3.58;;
78484;SDS011;67773;50.806;8.776;2024-02-21T00:22:16;10.97;;;3.63;;
78484;SDS011;67773;50.806;8.776;2024-02-21T00:24:41;11.13;;;4.00;;
78484;SDS011;67773;50.806;8.776;2024-02-21T00:27:07;7.43;;;3.30;;
78484;SDS011;67773;50.806;8.776;2024-02-21T00:29:32;10.23;;;3.97;;
78484;SDS011;67773;50.806;8.776;2024-02-21T00:31:59;8.57;;;3.60;;
78484;SDS011;67773;50.806;8.776;2024-02-21T00:34:24;11.50;;;3.75;;
78484;SDS011;67773;50.806;8.776;2024-02-21T00:36:50;8.25;;;3.70;;
78484;SDS011;67773;50.806;8.776;2024-02-21T00:39:15;8.20;;;3.63;;
78484;SDS011;67773;50.806;8.776;2024-02-21T00:41:40;9.50;;;3.87;;
78484;SDS011;67773;50.806;8.776;2024-02-21T00:44:06;10.27;;;3.97;;
78484;SDS011;67773;50.806;8.776;2024-02-21T00:46:31;7.57;;;3.58;;
78484;SDS011;67773;50.806;8.776;2024-02-21T00:48:56;11.03;;;3.73;;
78484;SDS011;67773;50.806;8.776;2024-02-21T00:51:22;8.70;;;3.73;;
78484;SDS011;67773;50.806;8.776;2024-02-21T00:53:47;8.70;;;3.23;;
78484;SDS011;67773;50.806;8.776;2024-02-21T00:56:12;11.17;;;4.43;;
78484;SDS011;67773;50.806;8.776;2024-02-21T00:58:37;13.67;;;5.60;;
78484;SDS011;67773;50.806;8.776;2024-02-21T01:01:03;11.40;;;3.80;;
78484;SDS011;67773;50.806;8.776;2024-02-21T01:03:28;8.68;;;3.88;;
78484;SDS011;67773;50.806;8.776;2024-02-21T01:05:53;13.13;;;4.33;;
78484;SDS011;67773;50.806;8.776;2024-02-21T01:08:19;12.03;;;4.13;;
78484;SDS011;67773;50.806;8.776;2024-02-21T01:10:44;10.07;;;3.70;;
78484;SDS011;67773;50.806;8.776;2024-02-21T01:13:09;12.83;;;4.27;;
78484;SDS011;67773;50.806;8.776;2024-02-21T01:15:35;11.17;;;3.60;;
78484;SDS011;67773;50.806;8.776;2024-02-21T01:18:00;8.43;;;3.43;;
78484;SDS011;67773;50.806;8.776;2024-02-21T01:20:26;7.75;;;3.65;;
78484;SDS011;67773;50.806;8.776;2024-02-21T01:22:51;9.63;;;4.27;;
78484;SDS011;67773;50.806;8.776;2024-02-21T01:25:16;10.20;;;3.47;;
78484;SDS011;67773;50.806;8.776;2024-02-21T01:27:42;12.02;;;4.22;;
78484;SDS011;67773;50.806;8.776;2024-02-21T01:30:07;8.80;;;3.40;;
78484;SDS011;67773;50.806;8.776;2024-02-21T01:32:33;9.63;;;3.85;;
78484;SDS011;67773;50.806;8.776;2024-02-21T01:34:58;9.13;;;4.00;;
78484;SDS011;67773;50.806;8.776;2024-02-21T01:37:24;13.98;;;4.43;;
78484;SDS011;67773;50.806;8.776;2024-02-21T01:39:50;12.73;;;4.78;;
78484;SDS011;67773;50.806;8.776;2024-02-21T01:42:15;12.13;;;4.32;;
78484;SDS011;67773;50.806;8.776;2024-02-21T01:44:41;12.27;;;4.35;;
78484;SDS011;67773;50.806;8.776;2024-02-21T01:47:06;14.48;;;4.53;;
78484;SDS011;67773;50.806;8.776;2024-02-21T01:49:32;11.02;;;4.45;;
78484;SDS011;67773;50.806;8.776;2024-02-21T01:51:57;9.82;;;4.35;;
78484;SDS011;67773;50.806;8.776;2024-02-21T01:54:23;10.63;;;3.92;;
78484;SDS011;67773;50.806;8.776;2024-02-21T01:56:50;10.30;;;4.40;;
78484;SDS011;67773;50.806;8.776;2024-02-21T01:59:16;9.35;;;4.35;;
78484;SDS011;67773;50.806;8.776;2024-02-21T02:01:42;11.57;;;4.20;;
78484;SDS011;67773;50.806;8.776;2024-02-21T02:04:08;11.18;;;4.07;;
78484;SDS011;67773;50.806;8.776;2024-02-21T02:06:33;13.93;;;4.38;;
78484;SDS011;67773;50.806;8.776;2024-02-21T02:08:59;9.52;;;4.63;;
78484;SDS011;67773;50.806;8.776;2024-02-21T02:11:25;10.75;;;5.05;;
78484;SDS011;67773;50.806;8.776;2024-02-21T02:13:50;9.55;;;3.97;;
78484;SDS011;67773;50.806;8.776;2024-02-21T02:16:15;11.13;;;4.00;;
78484;SDS011;67773;50.806;8.776;2024-02-21T02:18:41;9.20;;;4.13;;
78484;SDS011;67773;50.806;8.776;2024-02-21T02:21:08;15.75;;;5.47;;
78484;SDS011;67773;50.806;8.776;2024-02-21T02:23:39;15.05;;;7.10;;
78484;SDS011;67773;50.806;8.776;2024-02-21T02:26:05;11.35;;;4.28;;
78484;SDS011;67773;50.806;8.776;2024-02-21T02:28:32;12.85;;;4.47;;
78484;SDS011;67773;50.806;8.776;2024-02-21T02:30:57;10.15;;;4.68;;
78484;SDS011;67773;50.806;8.776;2024-02-21T02:33:22;12.50;;;5.23;;
78484;SDS011;67773;50.806;8.776;2024-02-21T02:35:48;11.95;;;5.35;;
78484;SDS011;67773;50.806;8.776;2024-02-21T02:38:14;15.13;;;5.57;;
78484;SDS011;67773;50.806;8.776;2024-02-21T02:40:39;16.02;;;4.88;;
78484;SDS011;67773;50.806;8.776;2024-02-21T02:43:06;15.98;;;4.93;;
78484;SDS011;67773;50.806;8.776;2024-02-21T02:45:31;12.18;;;4.88;;
78484;SDS011;67773;50.806;8.776;2024-02-21T02:47:57;11.32;;;4.13;;
78484;SDS011;67773;50.806;8.776;2024-02-21T02:50:23;13.63;;;5.25;;
78484;SDS011;67773;50.806;8.776;2024-02-21T02:52:49;10.98;;;4.60;;
78484;SDS011;67773;50.806;8.776;2024-02-21T02:55:14;12.35;;;5.10;;
78484;SDS011;67773;50.806;8.776;2024-02-21T02:57:40;12.70;;;4.93;;
78484;SDS011;67773;50.806;8.776;2024-02-21T03:00:08;11.82;;;4.20;;
78484;SDS011;67773;50.806;8.776;2024-02-21T03:02:35;10.60;;;4.30;;
78484;SDS011;67773;50.806;8.776;2024-02-21T03:05:03;9.43;;;4.05;;
78484;SDS011;67773;50.806;8.776;2024-02-21T03:07:38;11.73;;;4.55;;
78484;SDS011;67773;50.806;8.776;2024-02-21T03:10:04;13.35;;;4.82;;
78484;SDS011;67773;50.806;8.776;2024-02-21T03:12:29;12.25;;;4.72;;
78484;SDS011;67773;50.806;8.776;2024-02-21T03:14:55;9.70;;;4.10;;
78484;SDS011;67773;50.806;8.776;2024-02-21T03:17:20;15.27;;;4.03;;
78484;SDS011;67773;50.806;8.776;2024-02-21T03:19:46;11.25;;;4.25;;
78484;SDS011;67773;50.806;8.776;2024-02-21T03:22:11;8.60;;;3.70;;
78484;SDS011;67773;50.806;8.776;2024-02-21T03:24:36;10.53;;;4.03;;
78484;SDS011;67773;50.806;8.776;2024-02-21T03:27:02;11.13;;;4.63;;
78484;SDS011;67773;50.806;8.776;2024-02-21T03:29:27;8.57;;;3.88;;
78484;SDS011;67773;50.806;8.776;2024-02-21T03:31:52;14.40;;;3.97;;
78484;SDS011;67773;50.806;8.776;2024-02-21T03:34:18;10.20;;;3.97;;
78484;SDS011;67773;50.806;8.776;2024-02-21T03:36:43;13.80;;;4.10;;
78484;SDS011;67773;50.806;8.776;2024-02-21T03:39:08;11.73;;;4.47;;
78484;SDS011;67773;50.806;8.776;2024-02-21T03:41:34;11.55;;;4.88;;
78484;SDS011;67773;50.806;8.776;2024-02-21T03:44:00;9.48;;;3.92;;
78484;SDS011;67773;50.806;8.776;2024-02-21T03:46:25;10.52;;;3.90;;
78484;SDS011;67773;50.806;8.776;2024-02-21T03:48:50;12.50;;;4.63;;
78484;SDS011;67773;50.806;8.776;2024-02-21T03:51:16;9.98;;;4.15;;
78484;SDS011;67773;50.806;8.776;2024-02-21T03:53:41;11.25;;;4.20;;
78484;SDS011;67773;50.806;8.776;2024-02-21T03:56:07;13.37;;;3.67;;
78484;SDS011;67773;50.806;8.776;2024-02-21T03:58:32;12.17;;;4.60;;
78484;SDS011;67773;50.806;8.776;2024-02-21T04:01:01;10.95;;;3.78;;
78484;SDS011;67773;50.806;8.776;2024-02-21T04:03:27;10.07;;;3.97;;
78484;SDS011;67773;50.806;8.776;2024-02-21T04:05:52;8.13;;;3.42;;
78484;SDS011;67773;50.806;8.776;2024-02-21T04:08:18;9.97;;;3.70;;
78484;SDS011;67773;50.806;8.776;2024-02-21T04:10:43;11.13;;;3.47;;
78484;SDS011;67773;50.806;8.776;2024-02-21T04:13:08;9.10;;;3.70;;
78484;SDS011;67773;50.806;8.776;2024-02-21T04:15:35;10.75;;;3.75;;
78484;SDS011;67773;50.806;8.776;2024-02-21T04:18:01;9.10;;;3.73;;
78484;SDS011;67773;50.806;8.776;2024-02-21T04:20:26;12.13;;;3.97;;
78484;SDS011;67773;50.806;8.776;2024-02-21T04:22:52;9.32;;;3.50;;
78484;SDS011;67773;50.806;8.776;2024-02-21T04:25:17;11.07;;;4.17;;
78484;SDS011;67773;50.806;8.776;2024-02-21T04:27:44;10.50;;;4.53;;
78484;SDS011;67773;50.806;8.776;2024-02-21T04:30:09;7.68;;;4.10;;
78484;SDS011;67773;50.806;8.776;2024-02-21T04:32:35;7.35;;;3.92;;
78484;SDS011;67773;50.806;8.776;2024-02-21T04:35:00;7.18;;;3.13;;
78484;SDS011;67773;50.806;8.776;2024-02-21T04:37:26;8.30;;;3.42;;
78484;SDS011;67773;50.806;8.776;2024-02-21T04:39:51;8.17;;;3.70;;
78484;SDS011;67773;50.806;8.776;2024-02-21T04:42:16;8.53;;;3.60;;
78484;SDS011;67773;50.806;8.776;2024-02-21T04:44:42;7.72;;;3.40;;
78484;SDS011;67773;50.806;8.776;2024-02-21T04:47:08;9.43;;;4.32;;
78484;SDS011;67773;50.806;8.776;2024-02-21T04:49:33;7.60;;;3.40;;
78484;SDS011;67773;50.806;8.776;2024-02-21T04:51:59;14.10;;;3.50;;
78484;SDS011;67773;50.806;8.776;2024-02-21T04:54:24;7.97;;;3.40;;
78484;SDS011;67773;50.806;8.776;2024-02-21T04:56:50;9.17;;;3.53;;
78484;SDS011;67773;50.806;8.776;2024-02-21T04:59:15;9.50;;;3.83;;
78484;SDS011;67773;50.806;8.776;2024-02-21T05:01:41;10.47;;;4.03;;
78484;SDS011;67773;50.806;8.776;2024-02-21T05:04:06;6.30;;;3.30;;
78484;SDS011;67773;50.806;8.776;2024-02-21T05:06:32;8.27;;;3.78;;
78484;SDS011;67773;50.806;8.776;2024-02-21T05:09:02;9.73;;;3.67;;
78484;SDS011;67773;50.806;8.776;2024-02-21T05:11:28;14.18;;;3.92;;
78484;SDS011;67773;50.806;8.776;2024-02-21T05:13:53;10.73;;;3.93;;
78484;SDS011;67773;50.806;8.776;2024-02-21T05:16:18;8.70;;;3.20;;
78484;SDS011;67773;50.806;8.776;2024-02-21T05:18:44;12.60;;;4.15;;
78484;SDS011;67773;50.806;8.776;2024-02-21T05:21:09;8.27;;;3.43;;
78484;SDS011;67773;50.806;8.776;2024-02-21T05:23:35;12.93;;;3.60;;
78484;SDS011;67773;50.806;8.776;2024-02-21T05:26:00;8.43;;;3.50;;
78484;SDS011;67773;50.806;8.776;2024-02-21T05:28:25;10.55;;;3.97;;
78484;SDS011;67773;50.806;8.776;2024-02-21T05:30:51;7.70;;;3.20;;
78484;SDS011;67773;50.806;8.776;2024-02-21T05:33:16;8.13;;;3.22;;
78484;SDS011;67773;50.806;8.776;2024-02-21T05:35:46;7.63;;;3.60;;
78484;SDS011;67773;50.806;8.776;2024-02-21T05:38:14;8.02;;;3.30;;
78484;SDS011;67773;50.806;8.776;2024-02-21T05:40:40;7.97;;;3.45;;
78484;SDS011;67773;50.806;8.776;2024-02-21T05:43:06;9.38;;;3.63;;
78484;SDS011;67773;50.806;8.776;2024-02-21T05:45:32;8.85;;;2.90;;
78484;SDS011;67773;50.806;8.776;2024-02-21T05:47:57;9.67;;;3.73;;
78484;SDS011;67773;50.806;8.776;2024-02-21T05:50:23;11.37;;;3.30;;
78484;SDS011;67773;50.806;8.776;2024-02-21T05:52:50;8.55;;;3.70;;
78484;SDS011;67773;50.806;8.776;2024-02-21T05:55:16;7.57;;;3.50;;
78484;SDS011;67773;50.806;8.776;2024-02-21T05:57:42;9.98;;;3.67;;
78484;SDS011;67773;50.806;8.776;2024-02-21T06:00:07;7.50;;;3.22;;
78484;SDS011;67773;50.806;8.776;2024-02-21T06:02:33;9.10;;;3.97;;
78484;SDS011;67773;50.806;8.776;2024-02-21T06:04:58;14.23;;;5.60;;
78484;SDS011;67773;50.806;8.776;2024-02-21T06:07:23;7.03;;;3.40;;
78484;SDS011;67773;50.806;8.776;2024-02-21T06:09:49;15.77;;;3.83;;
78484;SDS011;67773;50.806;8.776;2024-02-21T06:12:14;10.73;;;4.43;;
78484;SDS011;67773;50.806;8.776;2024-02-21T06:14:39;10.90;;;3.60;;
78484;SDS011;67773;50.806;8.776;2024-02-21T06:17:05;13.15;;;3.33;;
78484;SDS011;67773;50.806;8.776;2024-02-21T06:19:30;8.90;;;3.20;;
78484;SDS011;67773;50.806;8.776;2024-02-21T06:21:55;9.07;;;3.57;;
78484;SDS011;67773;50.806;8.776;2024-02-21T06:24:21;10.90;;;4.23;;
78484;SDS011;67773;50.806;8.776;2024-02-21T06:26:46;8.15;;;3.10;;
78484;SDS011;67773;50.806;8.776;2024-02-21T06:29:12;5.00;;;2.50;;
78484;SDS011;67773;50.806;8.776;2024-02-21T06:31:38;9.77;;;4.05;;
78484;SDS011;67773;50.806;8.776;2024-02-21T06:34:05;7.53;;;3.03;;
78484;SDS011;67773;50.806;8.776;2024-02-21T06:36:30;8.40;;;3.23;;
78484;SDS011;67773;50.806;8.776;2024-02-21T06:38:55;10.83;;;3.43;;
78484;SDS011;67773;50.806;8.776;2024-02-21T06:41:21;8.57;;;2.83;;
78484;SDS011;67773;50.806;8.776;2024-02-21T06:43:46;7.70;;;3.33;;
78484;SDS011;67773;50.806;8.776;2024-02-21T06:46:12;7.53;;;2.70;;
78484;SDS011;67773;50.806;8.776;2024-02-21T06:48:37;7.88;;;2.70;;
78484;SDS011;67773;50.806;8.776;2024-02-21T06:51:03;6.10;;;2.93;;
78484;SDS011;67773;50.806;8.776;2024-02-21T06:53:29;8.10;;;2.97;;
78484;SDS011;67773;50.806;8.776;2024-02-21T06:55:54;9.07;;;3.30;;
78484;SDS011;67773;50.806;8.776;2024-02-21T06:58:19;10.13;;;3.23;;
78484;SDS011;67773;50.806;8.776;2024-02-21T07:00:44;11.23;;;3.17;;
78484;SDS011;67773;50.806;8.776;2024-02-21T07:03:10;9.10;;;3.40;;
78484;SDS011;67773;50.806;8.776;2024-02-21T07:05:35;11.37;;;2.93;;
78484;SDS011;67773;50.806;8.776;2024-02-21T07:08:00;7.77;;;3.20;;
78484;SDS011;67773;50.806;8.776;2024-02-21T07:10:27;9.73;;;3.25;;
78484;SDS011;67773;50.806;8.776;2024-02-21T07:12:54;8.13;;;3.08;;
78484;SDS011;67773;50.806;8.776;2024-02-21T07:15:20;7.38;;;2.92;;
78484;SDS011;67773;50.806;8.776;2024-02-21T07:17:45;6.72;;;2.90;;
78484;SDS011;67773;50.806;8.776;2024-02-21T07:20:10;8.90;;;3.43;;
78484;SDS011;67773;50.806;8.776;2024-02-21T07:22:36;10.13;;;3.30;;
78484;SDS011;67773;50.806;8.776;2024-02-21T07:25:01;9.43;;;3.80;;
78484;SDS011;67773;50.806;8.776;2024-02-21T07:27:26;12.77;;;3.60;;
78484;SDS011;67773;50.806;8.776;2024-02-21T07:29:55;8.30;;;3.42;;
78484;SDS011;67773;50.806;8.776;2024-02-21T07:32:21;7.57;;;3.08;;
78484;SDS011;67773;50.806;8.776;2024-02-21T07:34:46;7.05;;;2.70;;
78484;SDS011;67773;50.806;8.776;2024-02-21T07:37:12;8.23;;;3.03;;
78484;SDS011;67773;50.806;8.776;2024-02-21T07:39:37;9.50;;;3.00;;
78484;SDS011;67773;50.806;8.776;2024-02-21T07:42:02;5.87;;;2.57;;
78484;SDS011;67773;50.806;8.776;2024-02-21T07:44:28;7.45;;;2.50;;
78484;SDS011;67773;50.806;8.776;2024-02-21T07:46:53;11.93;;;3.87;;
78484;SDS011;67773;50.806;8.776;2024-02-21T07:49:18;7.73;;;2.40;;
78484;SDS011;67773;50.806;8.776;2024-02-21T07:51:44;6.00;;;2.80;;
78484;SDS011;67773;50.806;8.776;2024-02-21T07:54:09;11.87;;;2.70;;
78484;SDS011;67773;50.806;8.776;2024-02-21T07:56:34;6.53;;;2.57;;
78484;SDS011;67773;50.806;8.776;2024-02-21T07:59:00;8.47;;;3.13;;
78484;SDS011;67773;50.806;8.776;2024-02-21T08:01:25;7.90;;;2.37;;
78484;SDS011;67773;50.806;8.776;2024-02-21T08:03:50;10.83;;;3.00;;
78484;SDS011;67773;50.806;8.776;2024-02-21T08:06:16;5.73;;;2.30;;
78484;SDS011;67773;50.806;8.776;2024-02-21T08:08:41;7.43;;;2.50;;
78484;SDS011;67773;50.806;8.776;2024-02-21T08:11:07;7.20;;;2.33;;
78484;SDS011;67773;50.806;8.776;2024-02-21T08:13:32;6.20;;;2.58;;
78484;SDS011;67773;50.806;8.776;2024-02-21T08:15:57;4.83;;;2.37;;
78484;SDS011;67773;50.806;8.776;2024-02-21T08:18:23;8.50;;;2.73;;
78484;SDS011;67773;50.806;8.776;2024-02-21T08:20:48;7.00;;;2.50;;
78484;SDS011;67773;50.806;8.776;2024-02-21T08:23:16;9.27;;;2.50;;
78484;SDS011;67773;50.806;8.776;2024-02-21T08:25:42;4.35;;;2.17;;
78484;SDS011;67773;50.806;8.776;2024-02-21T08:28:07;6.47;;;3.03;;
78484;SDS011;67773;50.806;8.776;2024-02-21T08:30:33;10.90;;;3.45;;
78484;SDS011;67773;50.806;8.776;2024-02-21T08:32:58;9.25;;;2.55;;
78484;SDS011;67773;50.806;8.776;2024-02-21T08:35:24;8.00;;;2.90;;
78484;SDS011;67773;50.806;8.776;2024-02-21T08:37:49;8.80;;;2.97;;
78484;SDS011;67773;50.806;8.776;2024-02-21T08:40:15;6.40;;;3.13;;
78484;SDS011;67773;50.806;8.776;2024-02-21T08:42:44;6.43;;;2.88;;
78484;SDS011;67773;50.806;8.776;2024-02-21T08:45:10;6.95;;;2.90;;
78484;SDS011;67773;50.806;8.776;2024-02-21T08:47:35;8.82;;;3.00;;
78484;SDS011;67773;50.806;8.776;2024-02-21T08:50:04;6.57;;;2.92;;
78484;SDS011;67773;50.806;8.776;2024-02-21T08:52:30;5.85;;;2.83;;
78484;SDS011;67773;50.806;8.776;2024-02-21T08:54:56;5.70;;;2.58;;
78484;SDS011;67773;50.806;8.776;2024-02-21T08:57:21;6.60;;;2.53;;
78484;SDS011;67773;50.806;8.776;2024-02-21T08:59:47;6.78;;;2.85;;
78484;SDS011;67773;50.806;8.776;2024-02-21T09:02:12;6.68;;;2.70;;
78484;SDS011;67773;50.806;8.776;2024-02-21T09:04:38;7.50;;;3.00;;
78484;SDS011;67773;50.806;8.776;2024-02-21T09:07:03;10.07;;;3.67;;
78484;SDS011;67773;50.806;8.776;2024-02-21T09:09:29;7.63;;;3.00;;
78484;SDS011;67773;50.806;8.776;2024-02-21T09:11:54;13.80;;;4.63;;
78484;SDS011;67773;50.806;8.776;2024-02-21T09:14:19;6.40;;;2.60;;
78484;SDS011;67773;50.806;8.776;2024-02-21T09:16:49;7.88;;;3.10;;
78484;SDS011;67773;50.806;8.776;2024-02-21T09:19:17;9.25;;;2.92;;
78484;SDS011;67773;50.806;8.776;2024-02-21T09:21:43;7.20;;;2.70;;
78484;SDS011;67773;50.806;8.776;2024-02-21T09:24:08;9.37;;;3.50;;
78484;SDS011;67773;50.806;8.776;2024-02-21T09:26:33;7.60;;;4.10;;
78484;SDS011;67773;50.806;8.776;2024-02-21T09:28:58;7.13;;;3.17;;
78484;SDS011;67773;50.806;8.776;2024-02-21T09:31:24;5.97;;;2.75;;
78484;SDS011;67773;50.806;8.776;2024-02-21T09:33:50;8.07;;;3.07;;
78484;SDS011;67773;50.806;8.776;2024-02-21T09:36:15;8.43;;;2.93;;
78484;SDS011;67773;50.806;8.776;2024-02-21T09:38:40;10.10;;;3.28;;
78484;SDS011;67773;50.806;8.776;2024-02-21T09:43:42;7.22;;;3.30;;
78484;SDS011;67773;50.806;8.776;2024-02-21T09:46:12;7.50;;;3.22;;
78484;SDS011;67773;50.806;8.776;2024-02-21T09:48:44;7.75;;;3.17;;
78484;SDS011;67773;50.806;8.776;2024-02-21T09:51:15;8.10;;;2.95;;
78484;SDS011;67773;50.806;8.776;2024-02-21T09:53:41;7.80;;;2.83;;
78484;SDS011;67773;50.806;8.776;2024-02-21T09:56:08;9.85;;;3.10;;
78484;SDS011;67773;50.806;8.776;2024-02-21T09:58:34;6.10;;;2.95;;
78484;SDS011;67773;50.806;8.776;2024-02-21T10:00:59;4.95;;;2.45;;
78484;SDS011;67773;50.806;8.776;2024-02-21T10:03:25;7.45;;;2.63;;
78484;SDS011;67773;50.806;8.776;2024-02-21T10:05:50;8.55;;;3.03;;
78484;SDS011;67773;50.806;8.776;2024-02-21T10:08:16;7.40;;;2.90;;
78484;SDS011;67773;50.806;8.776;2024-02-21T10:10:42;6.05;;;2.75;;
78484;SDS011;67773;50.806;8.776;2024-02-21T10:13:11;7.60;;;3.17;;
78484;SDS011;67773;50.806;8.776;2024-02-21T10:18:25;8.70;;;2.58;;
78484;SDS011;67773;50.806;8.776;2024-02-21T10:20:59;8.52;;;2.75;;
78484;SDS011;67773;50.806;8.776;2024-02-21T10:23:28;8.73;;;3.05;;
78484;SDS011;67773;50.806;8.776;2024-02-21T10:25:54;8.18;;;3.05;;
78484;SDS011;67773;50.806;8.776;2024-02-21T10:28:19;6.20;;;2.97;;
78484;SDS011;67773;50.806;8.776;2024-02-21T10:30:51;6.53;;;2.92;;
78484;SDS011;67773;50.806;8.776;2024-02-21T10:33:17;4.93;;;2.55;;
78484;SDS011;67773;50.806;8.776;2024-02-21T10:35:45;6.50;;;2.83;;
78484;SDS011;67773;50.806;8.776;2024-02-21T10:38:12;4.72;;;2.42;;
78484;SDS011;67773;50.806;8.776;2024-02-21T10:40:37;6.78;;;2.75;;
78484;SDS011;67773;50.806;8.776;2024-02-21T10:43:03;6.13;;;3.60;;
78484;SDS011;67773;50.806;8.776;2024-02-21T10:45:31;6.60;;;3.13;;
78484;SDS011;67773;50.806;8.776;2024-02-21T10:50:32;7.57;;;2.70;;
78484;SDS011;67773;50.806;8.776;2024-02-21T10:55:53;9.07;;;2.90;;
78484;SDS011;67773;50.806;8.776;2024-02-21T10:58:26;8.48;;;2.65;;
78484;SDS011;67773;50.806;8.776;2024-02-21T11:00:55;7.10;;;2.72;;
78484;SDS011;67773;50.806;8.776;2024-02-21T11:03:20;7.30;;;2.80;;
78484;SDS011;67773;50.806;8.776;2024-02-21T11:05:46;7.15;;;2.95;;
78484;SDS011;67773;50.806;8.776;2024-02-21T11:08:12;6.57;;;2.53;;
78484;SDS011;67773;50.806;8.776;2024-02-21T11:10:38;8.88;;;3.17;;
78484;SDS011;67773;50.806;8.776;2024-02-21T11:13:06;7.32;;;3.53;;
78484;SDS011;67773;50.806;8.776;2024-02-21T11:15:33;5.07;;;2.90;;
78484;SDS011;67773;50.806;8.776;2024-02-21T11:17:58;5.53;;;3.05;;
78484;SDS011;67773;50.806;8.776;2024-02-21T11:20:33;5.47;;;2.83;;
78484;SDS011;67773;50.806;8.776;2024-02-21T11:23:00;9.40;;;3.00;;
78484;SDS011;67773;50.806;8.776;2024-02-21T11:25:28;5.93;;;2.50;;
78484;SDS011;67773;50.806;8.776;2024-02-21T11:28:07;6.78;;;3.22;;
78484;SDS011;67773;50.806;8.776;2024-02-21T11:30:36;8.30;;;2.38;;
78484;SDS011;67773;50.806;8.776;2024-02-21T11:33:03;7.18;;;2.67;;
78484;SDS011;67773;50.806;8.776;2024-02-21T11:35:31;6.40;;;2.80;;
78484;SDS011;67773;50.806;8.776;2024-02-21T11:38:07;6.25;;;2.75;;
78484;SDS011;67773;50.806;8.776;2024-02-21T11:40:34;6.72;;;2.40;;
78484;SDS011;67773;50.806;8.776;2024-02-21T11:42:59;8.67;;;2.63;;
78484;SDS011;67773;50.806;8.776;2024-02-21T11:45:25;7.53;;;2.50;;
78484;SDS011;67773;50.806;8.776;2024-02-21T11:47:51;8.02;;;3.00;;
78484;SDS011;67773;50.806;8.776;2024-02-21T11:50:16;6.22;;;2.70;;
78484;SDS011;67773;50.806;8.776;2024-02-21T11:52:42;6.03;;;2.78;;
78484;SDS011;67773;50.806;8.776;2024-02-21T11:55:07;9.38;;;2.83;;
78484;SDS011;67773;50.806;8.776;2024-02-21T11:57:33;8.07;;;3.10;;
78484;SDS011;67773;50.806;8.776;2024-02-21T12:00:10;8.20;;;3.80;;
78484;SDS011;67773;50.806;8.776;2024-02-21T12:02:37;7.75;;;2.50;;
78484;SDS011;67773;50.806;8.776;2024-02-21T12:05:02;4.70;;;2.45;;
78484;SDS011;67773;50.806;8.776;2024-02-21T12:07:30;8.07;;;2.78;;
78484;SDS011;67773;50.806;8.776;2024-02-21T12:09:58;7.10;;;2.75;;
78484;SDS011;67773;50.806;8.776;2024-02-21T12:12:25;5.40;;;2.50;;
78484;SDS011;67773;50.806;8.776;2024-02-21T12:14:54;6.90;;;2.60;;
78484;SDS011;67773;50.806;8.776;2024-02-21T12:17:21;8.45;;;3.08;;
78484;SDS011;67773;50.806;8.776;2024-02-21T12:19:46;5.28;;;3.22;;
78484;SDS011;67773;50.806;8.776;2024-02-21T12:22:18;6.97;;;3.03;;
78484;SDS011;67773;50.806;8.776;2024-02-21T12:24:44;6.38;;;2.72;;
78484;SDS011;67773;50.806;8.776;2024-02-21T12:27:12;6.55;;;2.95;;
78484;SDS011;67773;50.806;8.776;2024-02-21T12:29:38;5.90;;;2.05;;
78484;SDS011;67773;50.806;8.776;2024-02-21T12:32:03;9.00;;;2.97;;
78484;SDS011;67773;50.806;8.776;2024-02-21T12:34:29;4.60;;;2.55;;
78484;SDS011;67773;50.806;8.776;2024-02-21T12:36:57;7.13;;;2.63;;
78484;SDS011;67773;50.806;8.776;2024-02-21T12:39:23;8.20;;;2.50;;
78484;SDS011;67773;50.806;8.776;2024-02-21T12:41:48;7.03;;;2.70;;
78484;SDS011;67773;50.806;8.776;2024-02-21T12:44:14;5.07;;;2.40;;
78484;SDS011;67773;50.806;8.776;2024-02-21T12:46:41;6.30;;;2.40;;
78484;SDS011;67773;50.806;8.776;2024-02-21T12:49:06;10.07;;;3.00;;
78484;SDS011;67773;50.806;8.776;2024-02-21T12:51:33;12.57;;;5.95;;
78484;SDS011;67773;50.806;8.776;2024-02-21T12:53:59;8.63;;;4.30;;
78484;SDS011;67773;50.806;8.776;2024-02-21T12:56:25;9.00;;;3.10;;
78484;SDS011;67773;50.806;8.776;2024-02-21T12:58:55;7.03;;;3.20;;
78484;SDS011;67773;50.806;8.776;2024-02-21T13:01:21;9.65;;;2.90;;
78484;SDS011;67773;50.806;8.776;2024-02-21T13:03:46;8.07;;;3.08;;
78484;SDS011;67773;50.806;8.776;2024-02-21T13:06:12;7.93;;;3.00;;
78484;SDS011;67773;50.806;8.776;2024-02-21T13:08:38;7.32;;;2.83;;
78484;SDS011;67773;50.806;8.776;2024-02-21T13:11:03;6.80;;;2.42;;
78484;SDS011;67773;50.806;8.776;2024-02-21T13:13:29;8.10;;;2.35;;
78484;SDS011;67773;50.806;8.776;2024-02-21T13:15:55;6.63;;;2.72;;
78484;SDS011;67773;50.806;8.776;2024-02-21T13:18:20;9.67;;;2.23;;
78484;SDS011;67773;50.806;8.776;2024-02-21T13:20:46;5.32;;;2.45;;
78484;SDS011;67773;50.806;8.776;2024-02-21T13:23:11;6.77;;;2.53;;
78484;SDS011;67773;50.806;8.776;2024-02-21T13:25:36;6.28;;;2.10;;
78484;SDS011;67773;50.806;8.776;2024-02-21T13:28:02;4.73;;;1.70;;
78484;SDS011;67773;50.806;8.776;2024-02-21T13:30:28;4.20;;;2.30;;
78484;SDS011;67773;50.806;8.776;2024-02-21T13:32:54;5.47;;;2.30;;
78484;SDS011;67773;50.806;8.776;2024-02-21T13:35:19;6.47;;;2.20;;
78484;SDS011;67773;50.806;8.776;2024-02-21T13:37:45;4.95;;;2.03;;
78484;SDS011;67773;50.806;8.776;2024-02-21T13:40:11;11.65;;;4.60;;
78484;SDS011;67773;50.806;8.776;2024-02-21T13:42:38;7.10;;;2.58;;
78484;SDS011;67773;50.806;8.776;2024-02-21T13:45:04;8.18;;;3.17;;
78484;SDS011;67773;50.806;8.776;2024-02-21T13:47:30;7.57;;;2.58;;
78484;SDS011;67773;50.806;8.776;2024-02-21T13:49:57;6.60;;;2.65;;
78484;SDS011;67773;50.806;8.776;2024-02-21T13:52:22;7.63;;;2.57;;
78484;SDS011;67773;50.806;8.776;2024-02-21T13:54:47;5.97;;;3.10;;
78484;SDS011;67773;50.806;8.776;2024-02-21T13:57:13;6.57;;;2.60;;
78484;SDS011;67773;50.806;8.776;2024-02-21T13:59:39;5.78;;;2.00;;
78484;SDS011;67773;50.806;8.776;2024-02-21T14:02:04;5.20;;;2.05;;
78484;SDS011;67773;50.806;8.776;2024-02-21T14:04:32;7.72;;;2.60;;
78484;SDS011;67773;50.806;8.776;2024-02-21T14:06:57;7.25;;;2.40;;
78484;SDS011;67773;50.806;8.776;2024-02-21T14:09:23;6.70;;;2.60;;
78484;SDS011;67773;50.806;8.776;2024-02-21T14:11:48;7.20;;;2.30;;
78484;SDS011;67773;50.806;8.776;2024-02-21T14:14:13;7.73;;;2.37;;
78484;SDS011;67773;50.806;8.776;2024-02-21T14:16:40;7.65;;;2.60;;
78484;SDS011;67773;50.806;8.776;2024-02-21T14:19:05;5.28;;;2.33;;
78484;SDS011;67773;50.806;8.776;2024-02-21T14:21:32;8.00;;;2.72;;
78484;SDS011;67773;50.806;8.776;2024-02-21T14:23:57;4.65;;;2.63;;
78484;SDS011;67773;50.806;8.776;2024-02-21T14:26:23;7.75;;;2.92;;
78484;SDS011;67773;50.806;8.776;2024-02-21T14:28:48;6.78;;;2.50;;
78484;SDS011;67773;50.806;8.776;2024-02-21T14:31:13;8.43;;;3.47;;
78484;SDS011;67773;50.806;8.776;2024-02-21T14:33:39;7.13;;;2.80;;
78484;SDS011;67773;50.806;8.776;2024-02-21T14:36:05;7.72;;;2.58;;
78484;SDS011;67773;50.806;8.776;2024-02-21T14:38:30;8.40;;;2.83;;
78484;SDS011;67773;50.806;8.776;2024-02-21T14:40:56;6.85;;;2.60;;
78484;SDS011;67773;50.806;8.776;2024-02-21T14:43:21;8.05;;;2.92;;
78484;SDS011;67773;50.806;8.776;2024-02-21T14:45:47;7.57;;;3.78;;